Terminal Aerodrome Forecast
Issued by NWS Chicago, IL

Home | Current Version | Previous Version | Text Only | Print | Product List | Glossary Off
Versions: 1 2 3 4 5 6 7 8 9 10 11 12 13 14 15 16 17 18 19 20 21 22 23 24 25 26 27

000
FTUS43 KLOT 070907 AAA
TAFRFD
TAF AMD
KRFD 070907Z 0709/0806 20011KT P6SM OVC100 WS010/23050KT
     FM071300 23013G19KT P6SM OVC100
     FM071700 25013G20KT P6SM BKN180
     FM072300 25010KT P6SM BKN040=

USA.gov is the U.S. government's official web portal to all federal, state and local government web resources and services.